createdAt,value
2023-01-13T00:00:20.110Z,12.80
2023-01-13T00:01:24.141Z,10.63
2023-01-13T00:02:25.949Z,12.88
2023-01-13T00:03:27.876Z,10.57
2023-01-13T00:04:30.505Z,14.27
2023-01-13T00:05:32.543Z,12.93
2023-01-13T00:06:34.299Z,11.43
2023-01-13T00:07:35.987Z,15.32
2023-01-13T00:08:37.644Z,13.48
2023-01-13T00:09:39.341Z,12.50
2023-01-13T00:10:41.066Z,15.45
2023-01-13T00:11:42.910Z,14.55
2023-01-13T00:12:44.635Z,14.13
2023-01-13T00:13:46.411Z,12.00
2023-01-13T00:14:48.099Z,11.60
2023-01-13T00:15:59.888Z,12.75
2023-01-13T00:17:02.481Z,13.95
2023-01-13T00:18:04.210Z,12.43
2023-01-13T00:19:05.893Z,13.88
2023-01-13T00:20:08.391Z,15.30
2023-01-13T00:21:16.074Z,11.77
2023-01-13T00:22:17.870Z,12.40
2023-01-13T00:23:19.594Z,12.57
2023-01-13T00:24:21.508Z,12.47
2023-01-13T00:25:23.191Z,12.93
2023-01-13T00:26:28.419Z,13.73
2023-01-13T00:27:30.552Z,12.85
2023-01-13T00:28:32.872Z,13.65
2023-01-13T00:29:34.599Z,14.65
2023-01-13T00:30:36.409Z,12.63
2023-01-13T00:31:38.119Z,12.38
2023-01-13T00:32:39.880Z,11.27
2023-01-13T00:33:41.812Z,13.07
2023-01-13T00:34:43.533Z,12.40
2023-01-13T00:35:45.387Z,10.15
2023-01-13T00:36:47.232Z,13.40
2023-01-13T00:37:48.867Z,12.88
2023-01-13T00:38:50.613Z,10.95
2023-01-13T00:39:52.809Z,11.05
2023-01-13T00:41:06.065Z,12.20
2023-01-13T00:42:08.385Z,11.55
2023-01-13T00:43:10.067Z,8.65
2023-01-13T00:44:11.716Z,11.48
2023-01-13T00:45:13.372Z,9.17
2023-01-13T00:46:18.180Z,11.90
2023-01-13T00:47:19.852Z,10.13
2023-01-13T00:48:23.145Z,10.85
2023-01-13T00:49:24.969Z,11.27
2023-01-13T00:50:26.599Z,9.05
2023-01-13T00:51:28.288Z,10.98
2023-01-13T00:52:32.432Z,9.02
2023-01-13T00:53:39.509Z,10.80
2023-01-13T00:54:41.205Z,9.75
2023-01-13T00:55:42.928Z,8.40
2023-01-13T00:56:44.658Z,8.90
2023-01-13T00:57:46.535Z,9.35
2023-01-13T00:58:48.213Z,8.77
2023-01-13T00:59:49.839Z,11.07
2023-01-13T01:00:51.587Z,9.20
2023-01-13T01:01:53.438Z,9.63
2023-01-13T01:02:55.292Z,10.38
2023-01-13T01:03:56.970Z,9.63
2023-01-13T01:04:58.593Z,10.27
2023-01-13T01:06:09.727Z,8.93
2023-01-13T01:07:11.434Z,10.45
2023-01-13T01:08:13.148Z,11.57
2023-01-13T01:09:16.150Z,11.23
2023-01-13T01:10:17.875Z,9.98
2023-01-13T01:11:23.202Z,11.45
2023-01-13T01:12:24.879Z,12.10
2023-01-13T01:13:26.552Z,10.45
2023-01-13T01:14:28.481Z,10.93
2023-01-13T01:15:30.223Z,13.00
2023-01-13T01:16:33.442Z,11.20
2023-01-13T01:17:35.413Z,9.10
2023-01-13T01:18:39.897Z,9.63
2023-01-13T01:19:41.572Z,11.20
2023-01-13T01:20:43.235Z,8.68
2023-01-13T01:21:45.045Z,8.63
2023-01-13T01:22:46.731Z,9.15
2023-01-13T01:23:48.754Z,9.75
2023-01-13T01:24:50.356Z,9.40
2023-01-13T01:25:52.014Z,6.72
2023-01-13T01:26:54.008Z,7.17
2023-01-13T01:27:55.755Z,8.20
2023-01-13T01:28:57.468Z,7.82
2023-01-13T01:29:59.104Z,8.95
2023-01-13T01:31:05.616Z,8.52
2023-01-13T01:32:07.331Z,7.97
2023-01-13T01:33:08.964Z,7.13
2023-01-13T01:34:11.150Z,6.45
2023-01-13T01:35:12.779Z,5.97
2023-01-13T01:36:16.686Z,6.45
2023-01-13T01:37:18.439Z,6.47
2023-01-13T01:38:20.756Z,6.45
2023-01-13T01:39:22.482Z,6.03
2023-01-13T01:40:24.180Z,6.40
2023-01-13T01:41:28.787Z,5.60
2023-01-13T01:42:30.560Z,6.05
2023-01-13T01:44:05.300Z,6.53
2023-01-13T01:45:20.786Z,5.75
2023-01-13T01:46:22.452Z,7.40
2023-01-13T01:47:25.538Z,5.70
2023-01-13T01:48:29.625Z,5.50
2023-01-13T01:49:36.908Z,5.30
2023-01-13T01:50:40.066Z,5.68
2023-01-13T01:51:49.876Z,5.78
2023-01-13T01:52:59.752Z,5.20
2023-01-13T01:54:04.347Z,5.18
2023-01-13T01:55:18.203Z,6.63
2023-01-13T01:56:21.085Z,5.65
2023-01-13T01:57:39.565Z,5.72
2023-01-13T01:58:48.892Z,6.43
2023-01-13T01:59:50.880Z,6.27
2023-01-13T02:00:52.748Z,6.80
2023-01-13T02:01:54.885Z,5.60
2023-01-13T02:02:57.413Z,6.45
2023-01-13T02:04:05.646Z,6.60
2023-01-13T02:05:07.766Z,5.93
2023-01-13T02:07:28.505Z,6.72
2023-01-13T02:08:30.580Z,5.88
2023-01-13T02:09:33.326Z,6.38
2023-01-13T02:10:36.342Z,6.87
2023-01-13T02:11:38.282Z,6.53
2023-01-13T02:12:42.308Z,5.95
2023-01-13T02:13:43.947Z,7.10
2023-01-13T02:14:45.782Z,7.25
2023-01-13T02:16:03.463Z,6.28
2023-01-13T02:17:08.092Z,6.60
2023-01-13T02:18:32.660Z,6.85
2023-01-13T02:19:52.760Z,7.20
2023-01-13T02:21:18.173Z,6.38
2023-01-13T02:22:37.645Z,6.33
2023-01-13T02:23:57.692Z,5.93
2023-01-13T02:25:15.286Z,6.78
2023-01-13T02:26:34.906Z,7.63
2023-01-13T02:27:44.302Z,7.50
2023-01-13T02:29:10.640Z,6.95
2023-01-13T02:30:42.873Z,7.18
2023-01-13T02:31:48.619Z,6.97
2023-01-13T02:33:42.393Z,6.18
2023-01-13T02:34:55.375Z,7.82
2023-01-13T02:36:35.455Z,7.27
2023-01-13T02:37:40.706Z,7.25
2023-01-13T02:38:56.717Z,8.13
2023-01-13T02:40:07.365Z,7.97
2023-01-13T02:41:18.994Z,6.90
2023-01-13T02:42:41.404Z,6.65
2023-01-13T02:43:43.695Z,7.93
2023-01-13T02:45:04.812Z,7.53
2023-01-13T02:46:23.923Z,7.15
2023-01-13T02:47:27.419Z,8.85
2023-01-13T02:48:31.643Z,7.93
2023-01-13T02:49:42.510Z,9.30
2023-01-13T02:50:54.109Z,7.43
2023-01-13T02:52:02.101Z,7.82
2023-01-13T02:53:20.259Z,7.47
2023-01-13T02:54:27.454Z,8.07
2023-01-13T02:55:37.955Z,8.10
2023-01-13T02:56:44.323Z,6.47
2023-01-13T02:57:48.361Z,7.65
2023-01-13T02:58:51.374Z,6.65
2023-01-13T02:59:55.762Z,7.80
2023-01-13T03:00:57.721Z,7.78
2023-01-13T03:01:59.825Z,7.90
2023-01-13T03:03:02.015Z,8.73
2023-01-13T03:04:14.541Z,6.47
2023-01-13T03:05:17.694Z,7.30
2023-01-13T03:06:41.739Z,7.63
2023-01-13T03:08:11.878Z,8.50
2023-01-13T03:09:27.971Z,8.35
2023-01-13T03:10:51.535Z,8.73
2023-01-13T03:12:17.561Z,6.67
2023-01-13T03:13:25.167Z,9.30
2023-01-13T03:14:56.647Z,8.48
2023-01-13T03:16:28.351Z,8.20
2023-01-13T03:17:49.485Z,10.50
2023-01-13T03:18:55.481Z,7.85
2023-01-13T03:20:16.072Z,11.07
2023-01-13T03:21:23.764Z,8.52
2023-01-13T03:22:44.977Z,7.10
2023-01-13T03:23:52.885Z,7.85
2023-01-13T03:25:35.256Z,7.83
2023-01-13T03:26:42.713Z,8.40
2023-01-13T03:27:53.809Z,8.68
2023-01-13T03:29:14.163Z,8.98
2023-01-13T03:30:41.951Z,8.75
2023-01-13T03:31:57.401Z,8.65
2023-01-13T03:33:09.238Z,7.22
2023-01-13T03:34:18.628Z,8.43
2023-01-13T03:35:34.388Z,8.10
2023-01-13T03:36:39.539Z,9.00
2023-01-13T03:37:47.610Z,11.97
2023-01-13T03:38:54.377Z,13.63
2023-01-13T03:40:02.507Z,11.50
2023-01-13T03:41:09.104Z,9.27
2023-01-13T03:42:20.683Z,8.80
2023-01-13T03:43:34.445Z,8.38
2023-01-13T03:44:52.666Z,10.02
2023-01-13T03:46:02.690Z,9.90
2023-01-13T03:47:11.392Z,10.10
2023-01-13T03:48:18.653Z,11.63
2023-01-13T03:49:24.351Z,11.73
2023-01-13T03:50:32.871Z,9.93
2023-01-13T03:51:39.318Z,11.75
2023-01-13T03:52:47.369Z,8.40
2023-01-13T03:54:01.255Z,9.00
2023-01-13T03:55:10.804Z,7.68
2023-01-13T03:56:19.201Z,9.15
2023-01-13T03:57:26.241Z,8.07
2023-01-13T03:58:33.795Z,7.35
2023-01-13T03:59:41.480Z,10.02
2023-01-13T04:00:58.571Z,8.60
2023-01-13T04:02:18.462Z,8.57
2023-01-13T04:03:27.604Z,8.00
2023-01-13T04:04:34.474Z,9.43
2023-01-13T04:05:42.197Z,9.68
2023-01-13T04:06:56.697Z,9.43
2023-01-13T04:08:09.851Z,8.10
2023-01-13T04:09:18.795Z,8.65
2023-01-13T04:10:46.755Z,8.82
2023-01-13T04:12:17.272Z,12.25
2023-01-13T04:13:23.489Z,9.17
2023-01-13T04:14:27.783Z,9.52
2023-01-13T04:15:34.075Z,9.63
2023-01-13T04:16:37.818Z,8.68
2023-01-13T04:17:39.674Z,9.85
2023-01-13T04:18:41.407Z,9.18
2023-01-13T04:19:43.105Z,7.90
2023-01-13T04:20:47.272Z,7.50
2023-01-13T04:21:48.906Z,7.38
2023-01-13T04:22:50.769Z,7.82
2023-01-13T04:23:52.400Z,7.73
2023-01-13T04:24:54.036Z,8.18
2023-01-13T04:25:56.501Z,7.75
2023-01-13T04:26:58.227Z,7.53
2023-01-13T04:27:59.923Z,7.88
2023-01-13T04:29:01.654Z,8.80
2023-01-13T04:30:04.650Z,10.07
2023-01-13T04:31:06.535Z,9.23
2023-01-13T04:32:08.234Z,8.93
2023-01-13T04:33:10.932Z,8.05
2023-01-13T04:34:12.871Z,9.27
2023-01-13T04:35:14.688Z,9.07
2023-01-13T04:36:16.728Z,7.75
2023-01-13T04:37:18.448Z,7.20
2023-01-13T04:38:21.448Z,7.38
2023-01-13T04:39:23.128Z,8.50
2023-01-13T04:40:24.855Z,9.48
2023-01-13T04:41:26.592Z,9.50
2023-01-13T04:42:28.281Z,10.40
2023-01-13T04:43:30.069Z,11.07
2023-01-13T04:44:31.808Z,8.03
2023-01-13T04:45:34.015Z,8.52
2023-01-13T04:46:35.825Z,7.72
2023-01-13T04:47:37.824Z,8.60
2023-01-13T04:48:39.756Z,7.82
2023-01-13T04:49:41.480Z,8.25
2023-01-13T04:50:43.221Z,8.57
2023-01-13T04:51:44.953Z,9.90
2023-01-13T04:52:47.717Z,9.77
2023-01-13T04:53:49.407Z,10.23
2023-01-13T04:54:51.157Z,12.17
2023-01-13T04:55:52.936Z,11.57
2023-01-13T04:56:54.682Z,11.80
2023-01-13T04:58:00.955Z,12.80
2023-01-13T04:59:02.811Z,13.13
2023-01-13T05:00:10.135Z,12.80
2023-01-13T05:01:11.955Z,12.48
2023-01-13T05:02:13.835Z,11.73
2023-01-13T05:03:15.565Z,12.02
2023-01-13T05:04:17.343Z,10.93
2023-01-13T05:05:19.221Z,12.67
2023-01-13T05:06:21.048Z,12.10
2023-01-13T05:07:22.760Z,10.32
2023-01-13T05:08:24.423Z,8.13
2023-01-13T05:09:26.169Z,10.68
2023-01-13T05:10:28.083Z,12.00
2023-01-13T05:11:29.785Z,11.30
2023-01-13T05:12:31.558Z,8.88
2023-01-13T05:13:33.257Z,10.32
2023-01-13T05:14:34.948Z,8.95
2023-01-13T05:15:36.720Z,8.47
2023-01-13T05:16:38.540Z,10.23
2023-01-13T05:17:41.266Z,11.00
2023-01-13T05:18:43.055Z,9.73
2023-01-13T05:19:44.822Z,7.07
2023-01-13T05:20:46.735Z,13.55
2023-01-13T05:21:48.413Z,8.65
2023-01-13T05:22:50.096Z,7.30
2023-01-13T05:23:51.801Z,8.05
2023-01-13T05:24:53.537Z,8.10
2023-01-13T05:25:55.257Z,7.77
2023-01-13T05:26:56.964Z,8.45
2023-01-13T05:28:00.022Z,7.03
2023-01-13T05:29:01.743Z,9.35
2023-01-13T05:30:04.774Z,8.85
2023-01-13T05:31:06.585Z,8.50
2023-01-13T05:32:08.415Z,9.57
2023-01-13T05:33:11.482Z,9.52
2023-01-13T05:34:13.235Z,6.82
2023-01-13T05:35:15.054Z,6.80
2023-01-13T05:36:16.839Z,6.47
2023-01-13T05:37:18.838Z,8.48
2023-01-13T05:38:20.729Z,10.15
2023-01-13T05:39:22.467Z,8.90
2023-01-13T05:40:24.345Z,9.98
2023-01-13T05:41:26.137Z,9.20
2023-01-13T05:42:28.022Z,7.63
2023-01-13T05:43:30.127Z,10.00
2023-01-13T05:44:31.855Z,6.55
2023-01-13T05:45:33.651Z,9.52
2023-01-13T05:46:35.389Z,7.47
2023-01-13T05:47:37.264Z,9.02
2023-01-13T05:48:41.681Z,10.32
2023-01-13T05:49:43.398Z,10.18
2023-01-13T05:50:46.697Z,10.48
2023-01-13T05:51:48.387Z,15.93
2023-01-13T05:52:50.432Z,18.60
2023-01-13T05:53:52.470Z,18.73
2023-01-13T05:54:54.388Z,24.05
2023-01-13T05:55:56.546Z,28.65
2023-01-13T05:56:58.341Z,36.50
2023-01-13T05:58:00.169Z,34.88
2023-01-13T05:59:01.971Z,34.72
2023-01-13T06:00:05.431Z,35.15
2023-01-13T06:01:09.700Z,23.67
2023-01-13T06:02:11.683Z,17.75
2023-01-13T06:03:13.916Z,15.77
2023-01-13T06:04:15.800Z,18.63
2023-01-13T06:05:17.547Z,14.70
2023-01-13T06:06:19.365Z,11.52
2023-01-13T06:07:21.104Z,10.40
2023-01-13T06:08:22.775Z,9.40
2023-01-13T06:09:24.462Z,10.52
2023-01-13T06:10:27.050Z,10.55
2023-01-13T06:11:28.741Z,8.13
2023-01-13T06:12:30.484Z,8.75
2023-01-13T06:13:32.287Z,7.22
2023-01-13T06:14:36.469Z,9.27
2023-01-13T06:15:38.898Z,7.40
2023-01-13T06:16:40.956Z,10.23
2023-01-13T06:17:42.900Z,9.33
2023-01-13T06:18:44.630Z,8.00
2023-01-13T06:19:46.569Z,9.77
2023-01-13T06:20:48.308Z,8.50
2023-01-13T06:21:50.125Z,8.35
2023-01-13T06:22:53.815Z,7.40
2023-01-13T06:23:56.103Z,8.05
2023-01-13T06:24:58.658Z,11.15
2023-01-13T06:26:16.233Z,9.02
2023-01-13T06:27:18.841Z,9.90
2023-01-13T06:28:20.576Z,10.17
2023-01-13T06:29:22.297Z,13.70
2023-01-13T06:30:24.158Z,20.63
2023-01-13T06:31:27.269Z,18.17
2023-01-13T06:32:34.214Z,20.63
2023-01-13T06:33:43.892Z,18.88
2023-01-13T06:34:51.509Z,17.27
2023-01-13T06:35:58.251Z,13.30
2023-01-13T06:37:00.808Z,14.05
2023-01-13T06:38:05.954Z,12.50
2023-01-13T06:39:09.219Z,11.07
2023-01-13T06:40:13.865Z,10.02
2023-01-13T06:41:16.790Z,10.82
2023-01-13T06:42:18.562Z,12.35
2023-01-13T06:43:20.474Z,10.55
2023-01-13T06:44:23.948Z,11.70
2023-01-13T06:45:27.816Z,14.32
2023-01-13T06:46:29.847Z,11.13
2023-01-13T06:47:31.901Z,11.70
2023-01-13T06:48:34.691Z,12.07
2023-01-13T06:49:36.375Z,12.40
2023-01-13T06:50:38.311Z,13.82
2023-01-13T06:51:40.097Z,12.38
2023-01-13T06:52:41.741Z,12.50
2023-01-13T06:53:43.668Z,12.90
2023-01-13T06:54:45.453Z,12.68
2023-01-13T06:55:47.426Z,13.05
2023-01-13T06:56:49.166Z,16.48
2023-01-13T06:57:53.464Z,13.70
2023-01-13T06:58:55.200Z,13.80
2023-01-13T06:59:56.952Z,13.53
2023-01-13T07:01:02.210Z,16.17
2023-01-13T07:02:04.191Z,15.15
2023-01-13T07:03:10.954Z,15.60
2023-01-13T07:04:12.708Z,17.98
2023-01-13T07:05:15.215Z,17.60
2023-01-13T07:06:16.988Z,18.48
2023-01-13T07:07:18.642Z,14.85
2023-01-13T07:08:20.531Z,16.27
2023-01-13T07:09:22.259Z,16.30
2023-01-13T07:10:23.916Z,17.00
2023-01-13T07:11:25.669Z,15.98
2023-01-13T07:12:27.325Z,18.13
2023-01-13T07:13:28.955Z,20.40
2023-01-13T07:14:30.710Z,16.58
2023-01-13T07:15:32.565Z,17.13
2023-01-13T07:16:34.505Z,12.70
2023-01-13T07:17:36.259Z,15.13
2023-01-13T07:18:38.302Z,14.80
2023-01-13T07:19:40.045Z,23.65
2023-01-13T07:20:41.730Z,27.67
2023-01-13T07:21:43.491Z,33.05
2023-01-13T07:22:45.975Z,25.08
2023-01-13T07:23:48.464Z,16.67
2023-01-13T07:24:50.339Z,25.02
2023-01-13T07:25:52.059Z,28.35
2023-01-13T07:26:53.816Z,40.70
2023-01-13T07:27:57.726Z,41.20
2023-01-13T07:28:59.444Z,28.23
2023-01-13T07:30:01.129Z,48.97
2023-01-13T07:31:03.859Z,22.27
2023-01-13T07:32:05.987Z,13.38
2023-01-13T07:33:07.871Z,13.90
2023-01-13T07:34:09.596Z,80.88
2023-01-13T07:35:11.549Z,154.07
2023-01-13T07:36:14.192Z,73.40
2023-01-13T07:37:16.366Z,37.00
2023-01-13T07:38:18.093Z,21.77
2023-01-13T07:39:19.856Z,13.90
2023-01-13T07:40:21.567Z,12.55
2023-01-13T07:41:23.880Z,9.10
2023-01-13T07:42:25.908Z,11.73
2023-01-13T07:43:27.614Z,15.60
2023-01-13T07:44:29.394Z,10.90
2023-01-13T07:45:31.106Z,10.10
2023-01-13T07:46:33.817Z,19.52
2023-01-13T07:47:35.583Z,15.43
2023-01-13T07:48:37.250Z,9.27
2023-01-13T07:49:39.102Z,8.98
2023-01-13T07:50:42.731Z,10.48
2023-01-13T07:51:45.708Z,9.23
2023-01-13T07:52:47.693Z,9.40
2023-01-13T07:53:49.368Z,10.95
2023-01-13T07:54:51.064Z,11.80
2023-01-13T07:55:56.647Z,11.68
2023-01-13T07:56:58.320Z,11.32
2023-01-13T07:58:00.141Z,9.05
2023-01-13T07:59:02.453Z,8.70
2023-01-13T08:00:05.469Z,11.68
2023-01-13T08:01:13.427Z,22.73
2023-01-13T08:02:15.405Z,26.17
2023-01-13T08:03:17.320Z,33.75
2023-01-13T08:04:19.102Z,24.63
2023-01-13T08:05:20.921Z,26.08
2023-01-13T08:06:22.854Z,29.88
2023-01-13T08:07:31.108Z,25.90
2023-01-13T08:08:33.157Z,29.02
2023-01-13T08:09:35.039Z,27.15
2023-01-13T08:10:36.856Z,28.52
2023-01-13T08:11:38.581Z,32.35
2023-01-13T08:12:40.327Z,36.87
2023-01-13T08:13:57.541Z,31.85
2023-01-13T08:14:59.206Z,24.52
2023-01-13T08:16:07.069Z,27.50
2023-01-13T08:17:09.828Z,33.25
2023-01-13T08:18:12.320Z,47.83
2023-01-13T08:19:14.181Z,29.00
2023-01-13T08:20:16.146Z,26.98
2023-01-13T08:21:18.036Z,26.48
2023-01-13T08:22:19.819Z,22.95
2023-01-13T08:23:23.004Z,22.07
2023-01-13T08:24:24.802Z,20.45
2023-01-13T08:25:28.675Z,20.45
2023-01-13T08:26:30.354Z,17.55
2023-01-13T08:27:32.064Z,14.65
2023-01-13T08:28:34.122Z,17.60
2023-01-13T08:29:36.050Z,15.88
2023-01-13T08:30:37.950Z,16.65
2023-01-13T08:31:39.752Z,11.85
2023-01-13T08:32:44.362Z,15.10
2023-01-13T08:33:46.338Z,43.33
2023-01-13T08:34:48.069Z,16.73
2023-01-13T08:35:49.998Z,15.45
2023-01-13T08:36:52.105Z,13.82
2023-01-13T08:37:54.023Z,13.43
2023-01-13T08:38:55.689Z,11.73
2023-01-13T08:39:57.325Z,9.02
2023-01-13T08:40:59.159Z,11.10
2023-01-13T08:42:00.985Z,17.40
2023-01-13T08:43:02.752Z,13.50
2023-01-13T08:44:05.933Z,25.70
2023-01-13T08:45:08.900Z,14.30
2023-01-13T08:46:10.624Z,13.85
2023-01-13T08:47:12.410Z,19.50
2023-01-13T08:48:14.148Z,10.75
2023-01-13T08:49:16.790Z,10.40
2023-01-13T08:50:19.278Z,9.75
2023-01-13T08:51:21.000Z,10.07
2023-01-13T08:52:22.905Z,8.95
2023-01-13T08:53:24.617Z,10.02
2023-01-13T08:54:26.326Z,12.60
2023-01-13T08:55:28.019Z,13.02
2023-01-13T08:56:32.764Z,27.90
2023-01-13T08:57:35.971Z,11.40
2023-01-13T08:58:37.681Z,14.55
2023-01-13T08:59:39.439Z,11.38
2023-01-13T09:00:41.245Z,17.58
2023-01-13T09:01:43.430Z,14.10
2023-01-13T09:02:45.258Z,8.85
2023-01-13T09:03:47.062Z,8.07
2023-01-13T09:04:50.076Z,7.43
2023-01-13T09:05:51.883Z,7.10
2023-01-13T09:06:54.710Z,8.95
2023-01-13T09:07:56.376Z,7.32
2023-01-13T09:08:59.089Z,13.45
2023-01-13T09:10:01.749Z,10.15
2023-01-13T09:11:03.566Z,14.35
2023-01-13T09:12:05.771Z,8.85
2023-01-13T09:13:09.008Z,9.10
2023-01-13T09:14:10.734Z,8.35
2023-01-13T09:15:13.125Z,10.70
2023-01-13T09:16:14.951Z,12.57
2023-01-13T09:17:16.835Z,10.35
2023-01-13T09:18:18.508Z,11.98
2023-01-13T09:19:20.232Z,13.13
2023-01-13T09:20:21.914Z,11.07
2023-01-13T09:21:23.690Z,12.80
2023-01-13T09:22:25.355Z,13.05
2023-01-13T09:23:27.068Z,9.82
2023-01-13T09:24:29.416Z,13.88
2023-01-13T09:25:31.704Z,9.77
2023-01-13T09:26:33.581Z,11.13
2023-01-13T09:27:35.384Z,10.35
2023-01-13T09:28:37.183Z,10.73
2023-01-13T09:29:39.069Z,11.15
2023-01-13T09:30:40.764Z,20.75
2023-01-13T09:31:44.376Z,39.05
2023-01-13T09:32:46.259Z,10.70
2023-01-13T09:33:48.129Z,8.00
2023-01-13T09:34:49.902Z,9.63
2023-01-13T09:35:51.601Z,7.57
2023-01-13T09:36:54.297Z,9.00
2023-01-13T09:37:56.231Z,8.15
2023-01-13T09:38:57.990Z,9.07
2023-01-13T09:40:00.442Z,9.52
2023-01-13T09:41:02.409Z,8.30
2023-01-13T09:42:28.097Z,10.10
2023-01-13T09:43:38.394Z,10.43
2023-01-13T09:44:46.980Z,10.20
2023-01-13T09:45:57.709Z,8.23
2023-01-13T09:47:04.528Z,10.67
2023-01-13T09:48:29.222Z,10.18
2023-01-13T09:49:38.768Z,8.13
2023-01-13T09:50:51.012Z,8.38
2023-01-13T09:52:02.829Z,8.68
2023-01-13T09:53:13.089Z,7.95
2023-01-13T09:54:43.029Z,8.25
2023-01-13T09:55:44.874Z,7.97
2023-01-13T09:56:46.708Z,8.90
2023-01-13T09:57:48.763Z,7.45
2023-01-13T09:58:50.627Z,10.37
2023-01-13T09:59:52.475Z,8.57
2023-01-13T10:01:29.822Z,7.80
2023-01-13T10:02:42.582Z,9.32
2023-01-13T10:03:45.025Z,7.38
2023-01-13T10:05:11.717Z,7.90
2023-01-13T10:06:15.869Z,6.80
2023-01-13T10:07:17.743Z,6.72
2023-01-13T10:08:49.165Z,8.73
2023-01-13T10:09:53.761Z,9.32
2023-01-13T10:11:01.024Z,7.73
2023-01-13T10:12:03.216Z,6.80
2023-01-13T10:13:37.119Z,8.82
2023-01-13T10:14:42.987Z,11.93
2023-01-13T10:16:05.975Z,15.45
2023-01-13T10:17:13.478Z,8.82
2023-01-13T10:19:07.643Z,7.07
2023-01-13T10:20:18.043Z,6.15
2023-01-13T10:21:48.269Z,8.80
2023-01-13T10:23:26.801Z,6.90
2023-01-13T10:25:06.187Z,10.03
2023-01-13T10:26:46.536Z,8.45
2023-01-13T10:27:51.419Z,8.75
2023-01-13T10:28:54.854Z,8.18
2023-01-13T10:29:56.589Z,7.60
2023-01-13T10:30:58.342Z,6.93
2023-01-13T10:32:00.781Z,7.22
2023-01-13T10:33:12.116Z,9.30
2023-01-13T10:34:13.993Z,10.18
2023-01-13T10:35:15.944Z,7.65
2023-01-13T10:36:18.866Z,6.67
2023-01-13T10:37:24.076Z,6.85
2023-01-13T10:38:31.525Z,8.10
2023-01-13T10:39:42.695Z,6.70
2023-01-13T10:40:54.066Z,8.65
2023-01-13T10:42:04.432Z,6.60
2023-01-13T10:43:06.284Z,8.13
2023-01-13T10:44:17.287Z,15.05
2023-01-13T10:45:25.682Z,9.73
2023-01-13T10:46:28.909Z,6.90
2023-01-13T10:47:36.081Z,6.73
2023-01-13T10:48:43.456Z,7.45
2023-01-13T10:50:03.302Z,7.03
2023-01-13T10:51:18.850Z,5.43
2023-01-13T10:52:30.337Z,6.70
2023-01-13T10:53:32.235Z,5.85
2023-01-13T10:54:35.765Z,5.95
2023-01-13T10:55:37.464Z,5.47
2023-01-13T10:56:44.868Z,5.45
2023-01-13T10:57:46.537Z,7.15
2023-01-13T10:58:48.669Z,6.97
2023-01-13T10:59:51.230Z,6.00
2023-01-13T11:01:05.520Z,6.50
2023-01-13T11:02:26.521Z,4.75
2023-01-13T11:03:42.049Z,5.25
2023-01-13T11:04:54.479Z,9.25
2023-01-13T11:05:59.269Z,8.13
2023-01-13T11:07:02.602Z,8.48
2023-01-13T11:08:05.238Z,7.45
2023-01-13T11:09:19.927Z,6.15
2023-01-13T11:10:27.134Z,7.77
2023-01-13T11:11:43.230Z,6.30
2023-01-13T11:13:02.886Z,5.45
2023-01-13T11:14:20.458Z,5.60
2023-01-13T11:15:31.690Z,5.93
2023-01-13T11:16:35.850Z,6.72
2023-01-13T11:17:47.470Z,6.50
2023-01-13T11:18:58.675Z,6.80
2023-01-13T11:20:23.339Z,8.55
2023-01-13T11:21:30.251Z,7.13
2023-01-13T11:22:37.210Z,6.33
2023-01-13T11:23:48.977Z,5.05
2023-01-13T11:24:58.996Z,7.43
2023-01-13T11:26:36.940Z,6.47
2023-01-13T11:27:40.694Z,5.03
2023-01-13T11:28:46.437Z,6.10
2023-01-13T11:30:03.827Z,5.97
2023-01-13T11:31:28.104Z,5.90
2023-01-13T11:32:35.607Z,4.90
2023-01-13T11:33:52.426Z,5.65
2023-01-13T11:35:00.547Z,22.23
2023-01-13T11:36:11.056Z,6.65
2023-01-13T11:37:21.449Z,6.00
2023-01-13T11:38:37.485Z,6.75
2023-01-13T11:39:52.545Z,7.10
2023-01-13T11:40:57.346Z,6.57
2023-01-13T11:42:11.364Z,7.03
2023-01-13T11:43:25.776Z,8.02
2023-01-13T11:44:40.242Z,9.02
2023-01-13T11:46:01.049Z,9.60
2023-01-13T11:47:02.747Z,10.63
2023-01-13T11:48:04.947Z,8.80
2023-01-13T11:49:09.165Z,11.93
2023-01-13T11:50:33.611Z,8.20
2023-01-13T11:51:43.399Z,7.55
2023-01-13T11:52:48.213Z,7.38
2023-01-13T11:53:59.251Z,7.20
2023-01-13T11:55:23.288Z,8.60
2023-01-13T11:56:43.008Z,8.52
2023-01-13T11:58:19.507Z,9.27
2023-01-13T11:59:39.820Z,8.47
2023-01-13T12:01:14.090Z,7.65
2023-01-13T12:02:44.866Z,8.98
2023-01-13T12:03:59.173Z,8.95
2023-01-13T12:05:25.205Z,10.85
2023-01-13T12:06:39.789Z,8.25
2023-01-13T12:07:50.871Z,9.25
2023-01-13T12:09:26.255Z,8.68
2023-01-13T12:10:53.506Z,9.30
2023-01-13T12:12:12.995Z,10.52
2023-01-13T12:13:46.352Z,7.60
2023-01-13T12:14:53.676Z,7.95
2023-01-13T12:16:03.171Z,8.57
2023-01-13T12:17:16.273Z,6.65
2023-01-13T12:18:45.704Z,8.20
2023-01-13T12:19:50.211Z,7.15
2023-01-13T12:21:14.025Z,8.57
2023-01-13T12:22:32.003Z,7.55
2023-01-13T12:23:55.500Z,8.20
2023-01-13T12:25:13.202Z,8.18
2023-01-13T12:26:16.934Z,8.43
2023-01-13T12:27:18.575Z,8.05
2023-01-13T12:28:41.303Z,9.35
2023-01-13T12:29:44.502Z,6.35
2023-01-13T12:30:51.255Z,10.80
2023-01-13T12:31:53.147Z,11.48
2023-01-13T12:33:03.740Z,10.45
2023-01-13T12:34:26.897Z,9.50
2023-01-13T12:36:02.442Z,11.50
2023-01-13T12:37:22.381Z,7.95
2023-01-13T12:38:36.326Z,10.40
2023-01-13T12:39:56.158Z,7.07
2023-01-13T12:41:15.862Z,10.25
2023-01-13T12:42:24.189Z,7.60
2023-01-13T12:43:26.105Z,10.38
2023-01-13T12:44:27.816Z,10.82
2023-01-13T12:45:31.891Z,7.88
2023-01-13T12:46:35.267Z,10.05
2023-01-13T12:47:38.076Z,8.05
2023-01-13T12:48:51.965Z,9.13
2023-01-13T12:50:22.370Z,10.33
2023-01-13T12:51:29.425Z,8.75
2023-01-13T12:52:44.016Z,9.55
2023-01-13T12:53:45.787Z,8.52
2023-01-13T12:54:47.437Z,9.10
2023-01-13T12:55:52.655Z,9.35
2023-01-13T12:56:54.533Z,8.25
2023-01-13T12:57:57.616Z,11.98
2023-01-13T12:59:32.569Z,9.18
2023-01-13T13:00:40.163Z,9.55
2023-01-13T13:01:41.975Z,8.57
2023-01-13T13:03:12.629Z,10.35
2023-01-13T13:04:19.549Z,11.98
2023-01-13T13:05:23.808Z,8.55
2023-01-13T13:06:31.287Z,9.07
2023-01-13T13:07:41.459Z,9.52
2023-01-13T13:09:09.392Z,8.50
2023-01-13T13:10:19.974Z,7.43
2023-01-13T13:11:35.692Z,9.45
2023-01-13T13:12:43.390Z,9.88
2023-01-13T13:13:48.703Z,9.97
2023-01-13T13:14:50.523Z,9.25
2023-01-13T13:16:34.271Z,9.82
2023-01-13T13:17:35.967Z,15.80
2023-01-13T13:18:37.749Z,15.02
2023-01-13T13:19:41.001Z,13.02
2023-01-13T13:21:03.820Z,9.70
2023-01-13T13:22:12.135Z,11.20
2023-01-13T13:23:29.001Z,10.90
2023-01-13T13:24:30.933Z,10.70
2023-01-13T13:25:32.741Z,14.80
2023-01-13T13:26:43.891Z,12.70
2023-01-13T13:28:00.290Z,11.50
2023-01-13T13:29:26.725Z,14.05
2023-01-13T13:30:35.747Z,11.95
2023-01-13T13:31:56.022Z,10.27
2023-01-13T13:33:35.044Z,13.35
2023-01-13T13:34:36.764Z,14.10
2023-01-13T13:35:50.708Z,10.38
2023-01-13T13:36:58.337Z,10.63
2023-01-13T13:38:20.617Z,13.87
2023-01-13T13:39:28.915Z,11.27
2023-01-13T13:40:39.388Z,13.88
2023-01-13T13:41:46.368Z,13.40
2023-01-13T13:42:57.874Z,12.55
2023-01-13T13:44:22.650Z,10.88
2023-01-13T13:45:26.530Z,17.00
2023-01-13T13:46:33.532Z,14.63
2023-01-13T13:47:39.327Z,13.93
2023-01-13T13:48:51.367Z,17.00
2023-01-13T13:49:53.620Z,12.00
2023-01-13T13:50:58.749Z,14.10
2023-01-13T13:52:05.668Z,14.43
2023-01-13T13:53:08.195Z,16.00
2023-01-13T13:54:13.568Z,10.63
2023-01-13T13:55:19.689Z,15.73
2023-01-13T13:56:27.803Z,13.55
2023-01-13T13:57:39.443Z,14.77
2023-01-13T13:58:41.750Z,14.48
2023-01-13T13:59:43.484Z,12.52
2023-01-13T14:00:48.097Z,12.00
2023-01-13T14:01:56.179Z,13.10
2023-01-13T14:03:01.262Z,12.05
2023-01-13T14:04:25.054Z,13.00
2023-01-13T14:05:29.702Z,11.45
2023-01-13T14:06:31.519Z,13.18
2023-01-13T14:07:42.948Z,17.20
2023-01-13T14:08:49.913Z,15.57
2023-01-13T14:09:54.715Z,14.18
2023-01-13T14:10:56.775Z,15.18
2023-01-13T14:11:58.425Z,16.33
2023-01-13T14:13:15.049Z,17.83
2023-01-13T14:14:16.689Z,16.10
2023-01-13T14:15:36.965Z,14.95
2023-01-13T14:16:40.527Z,14.35
2023-01-13T14:17:42.327Z,16.35
2023-01-13T14:18:47.249Z,13.30
2023-01-13T14:19:55.683Z,19.73
2023-01-13T14:21:05.106Z,15.60
2023-01-13T14:22:06.836Z,13.02
2023-01-13T14:23:17.053Z,13.20
2023-01-13T14:24:18.793Z,13.50
2023-01-13T14:25:37.242Z,17.23
2023-01-13T14:26:38.902Z,31.55
2023-01-13T14:27:43.334Z,21.27
2023-01-13T14:28:45.225Z,20.98
2023-01-13T14:29:47.076Z,16.02
2023-01-13T14:30:51.067Z,17.25
2023-01-13T14:31:54.734Z,16.42
2023-01-13T14:32:56.883Z,16.98
2023-01-13T14:34:02.984Z,13.70
2023-01-13T14:35:24.678Z,14.88
2023-01-13T14:36:32.156Z,14.45
2023-01-13T14:37:38.566Z,16.98